sensor_id;sensor_type;location;lat;lon;timestamp;P1;durP1;ratioP1;P2;durP2;ratioP2
32323;SDS011;25666;44.350;9.222;2023-03-25T00:02:19;11.70;;;5.60;;
32323;SDS011;25666;44.350;9.222;2023-03-25T00:04:48;10.70;;;5.25;;
32323;SDS011;25666;44.350;9.222;2023-03-25T00:07:18;21.00;;;6.65;;
32323;SDS011;25666;44.350;9.222;2023-03-25T00:09:44;13.32;;;4.38;;
32323;SDS011;25666;44.350;9.222;2023-03-25T00:12:10;9.45;;;4.13;;
32323;SDS011;25666;44.350;9.222;2023-03-25T00:14:35;11.30;;;5.97;;
32323;SDS011;25666;44.350;9.222;2023-03-25T00:17:01;13.20;;;5.32;;
32323;SDS011;25666;44.350;9.222;2023-03-25T00:19:26;13.65;;;5.40;;
32323;SDS011;25666;44.350;9.222;2023-03-25T00:21:52;12.70;;;5.78;;
32323;SDS011;25666;44.350;9.222;2023-03-25T00:24:18;21.42;;;5.32;;
32323;SDS011;25666;44.350;9.222;2023-03-25T00:26:46;14.73;;;5.00;;
32323;SDS011;25666;44.350;9.222;2023-03-25T00:29:13;9.85;;;4.60;;
32323;SDS011;25666;44.350;9.222;2023-03-25T00:31:40;12.07;;;4.80;;
32323;SDS011;25666;44.350;9.222;2023-03-25T00:34:06;12.85;;;5.57;;
32323;SDS011;25666;44.350;9.222;2023-03-25T00:36:32;18.67;;;5.80;;
32323;SDS011;25666;44.350;9.222;2023-03-25T00:39:02;12.13;;;5.50;;
32323;SDS011;25666;44.350;9.222;2023-03-25T00:41:29;10.23;;;4.72;;
32323;SDS011;25666;44.350;9.222;2023-03-25T00:43:55;10.68;;;3.75;;
32323;SDS011;25666;44.350;9.222;2023-03-25T00:46:25;10.50;;;3.45;;
32323;SDS011;25666;44.350;9.222;2023-03-25T00:48:53;5.20;;;3.17;;
32323;SDS011;25666;44.350;9.222;2023-03-25T00:51:20;10.68;;;4.22;;
32323;SDS011;25666;44.350;9.222;2023-03-25T00:53:47;7.95;;;3.45;;
32323;SDS011;25666;44.350;9.222;2023-03-25T00:56:17;6.97;;;3.03;;
32323;SDS011;25666;44.350;9.222;2023-03-25T00:58:43;5.18;;;2.78;;
32323;SDS011;25666;44.350;9.222;2023-03-25T01:01:10;14.07;;;3.58;;
32323;SDS011;25666;44.350;9.222;2023-03-25T01:03:41;5.53;;;3.28;;
32323;SDS011;25666;44.350;9.222;2023-03-25T01:06:12;5.45;;;2.88;;
32323;SDS011;25666;44.350;9.222;2023-03-25T01:08:40;14.68;;;4.07;;
32323;SDS011;25666;44.350;9.222;2023-03-25T01:11:42;16.85;;;3.88;;
32323;SDS011;25666;44.350;9.222;2023-03-25T01:14:03;10.02;;;3.75;;
32323;SDS011;25666;44.350;9.222;2023-03-25T01:16:31;7.70;;;2.92;;
32323;SDS011;25666;44.350;9.222;2023-03-25T01:18:57;6.05;;;3.25;;
32323;SDS011;25666;44.350;9.222;2023-03-25T01:21:24;5.07;;;3.00;;
32323;SDS011;25666;44.350;9.222;2023-03-25T01:23:50;11.60;;;3.47;;
32323;SDS011;25666;44.350;9.222;2023-03-25T01:26:15;9.02;;;2.92;;
32323;SDS011;25666;44.350;9.222;2023-03-25T01:28:41;9.60;;;3.40;;
32323;SDS011;25666;44.350;9.222;2023-03-25T01:31:09;13.48;;;3.78;;
32323;SDS011;25666;44.350;9.222;2023-03-25T01:33:37;13.25;;;3.65;;
32323;SDS011;25666;44.350;9.222;2023-03-25T01:36:03;8.43;;;3.65;;
32323;SDS011;25666;44.350;9.222;2023-03-25T01:38:33;16.05;;;3.47;;
32323;SDS011;25666;44.350;9.222;2023-03-25T01:41:02;7.70;;;3.65;;
32323;SDS011;25666;44.350;9.222;2023-03-25T01:43:28;8.35;;;3.78;;
32323;SDS011;25666;44.350;9.222;2023-03-25T01:45:55;10.63;;;3.55;;
32323;SDS011;25666;44.350;9.222;2023-03-25T01:48:26;12.35;;;4.35;;
32323;SDS011;25666;44.350;9.222;2023-03-25T01:51:13;9.35;;;4.38;;
32323;SDS011;25666;44.350;9.222;2023-03-25T01:53:42;12.45;;;4.95;;
32323;SDS011;25666;44.350;9.222;2023-03-25T01:56:09;11.93;;;4.20;;
32323;SDS011;25666;44.350;9.222;2023-03-25T01:58:37;6.82;;;3.80;;
32323;SDS011;25666;44.350;9.222;2023-03-25T02:01:04;7.43;;;3.08;;
32323;SDS011;25666;44.350;9.222;2023-03-25T02:03:34;11.05;;;4.88;;
32323;SDS011;25666;44.350;9.222;2023-03-25T02:06:04;9.90;;;3.28;;
32323;SDS011;25666;44.350;9.222;2023-03-25T02:08:33;14.77;;;3.80;;
32323;SDS011;25666;44.350;9.222;2023-03-25T02:11:03;8.20;;;3.70;;
32323;SDS011;25666;44.350;9.222;2023-03-25T02:13:30;10.63;;;3.95;;
32323;SDS011;25666;44.350;9.222;2023-03-25T02:26:55;9.70;;;3.95;;
32323;SDS011;25666;44.350;9.222;2023-03-25T02:43:54;13.32;;;3.75;;
32323;SDS011;25666;44.350;9.222;2023-03-25T02:46:26;7.18;;;3.70;;
32323;SDS011;25666;44.350;9.222;2023-03-25T02:48:55;5.50;;;3.58;;
32323;SDS011;25666;44.350;9.222;2023-03-25T02:51:30;10.65;;;3.97;;
32323;SDS011;25666;44.350;9.222;2023-03-25T02:54:01;9.52;;;4.05;;
32323;SDS011;25666;44.350;9.222;2023-03-25T02:56:32;7.07;;;3.05;;
32323;SDS011;25666;44.350;9.222;2023-03-25T02:58:58;10.93;;;3.67;;
32323;SDS011;25666;44.350;9.222;2023-03-25T03:01:26;8.45;;;2.80;;
32323;SDS011;25666;44.350;9.222;2023-03-25T03:03:53;9.73;;;3.42;;
32323;SDS011;25666;44.350;9.222;2023-03-25T03:06:20;12.45;;;3.65;;
32323;SDS011;25666;44.350;9.222;2023-03-25T03:14:08;10.77;;;3.75;;
32323;SDS011;25666;44.350;9.222;2023-03-25T03:17:14;10.32;;;4.00;;
32323;SDS011;25666;44.350;9.222;2023-03-25T03:20:05;9.80;;;3.42;;
32323;SDS011;25666;44.350;9.222;2023-03-25T03:22:47;9.27;;;3.50;;
32323;SDS011;25666;44.350;9.222;2023-03-25T03:27:57;9.27;;;3.63;;
32323;SDS011;25666;44.350;9.222;2023-03-25T03:30:48;8.82;;;3.22;;
32323;SDS011;25666;44.350;9.222;2023-03-25T03:36:07;8.73;;;3.75;;
32323;SDS011;25666;44.350;9.222;2023-03-25T03:38:42;11.38;;;3.58;;
32323;SDS011;25666;44.350;9.222;2023-03-25T03:41:14;19.63;;;4.45;;
32323;SDS011;25666;44.350;9.222;2023-03-25T03:43:47;13.00;;;3.95;;
32323;SDS011;25666;44.350;9.222;2023-03-25T03:46:30;7.05;;;4.13;;
32323;SDS011;25666;44.350;9.222;2023-03-25T03:49:02;11.75;;;3.42;;
32323;SDS011;25666;44.350;9.222;2023-03-25T03:51:36;9.07;;;3.72;;
32323;SDS011;25666;44.350;9.222;2023-03-25T03:54:07;11.88;;;3.58;;
32323;SDS011;25666;44.350;9.222;2023-03-25T03:56:48;11.27;;;4.00;;
32323;SDS011;25666;44.350;9.222;2023-03-25T04:02:08;9.00;;;3.70;;
32323;SDS011;25666;44.350;9.222;2023-03-25T04:04:41;11.00;;;3.65;;
32323;SDS011;25666;44.350;9.222;2023-03-25T04:07:10;11.07;;;3.92;;
32323;SDS011;25666;44.350;9.222;2023-03-25T04:09:46;14.75;;;4.10;;
32323;SDS011;25666;44.350;9.222;2023-03-25T04:12:25;17.02;;;4.90;;
32323;SDS011;25666;44.350;9.222;2023-03-25T04:14:53;9.70;;;3.92;;
32323;SDS011;25666;44.350;9.222;2023-03-25T04:17:20;9.73;;;3.88;;
32323;SDS011;25666;44.350;9.222;2023-03-25T04:19:46;12.13;;;4.63;;
32323;SDS011;25666;44.350;9.222;2023-03-25T04:22:13;9.77;;;4.53;;
32323;SDS011;25666;44.350;9.222;2023-03-25T04:24:41;5.93;;;4.10;;
32323;SDS011;25666;44.350;9.222;2023-03-25T04:27:08;9.07;;;4.00;;
32323;SDS011;25666;44.350;9.222;2023-03-25T04:29:37;12.77;;;4.70;;
32323;SDS011;25666;44.350;9.222;2023-03-25T04:32:11;10.10;;;4.43;;
32323;SDS011;25666;44.350;9.222;2023-03-25T04:34:37;9.23;;;4.40;;
32323;SDS011;25666;44.350;9.222;2023-03-25T04:37:02;6.03;;;4.30;;
32323;SDS011;25666;44.350;9.222;2023-03-25T04:39:28;12.00;;;5.93;;
32323;SDS011;25666;44.350;9.222;2023-03-25T04:41:56;10.68;;;5.07;;
32323;SDS011;25666;44.350;9.222;2023-03-25T04:44:22;14.68;;;5.70;;
32323;SDS011;25666;44.350;9.222;2023-03-25T04:46:50;14.55;;;5.47;;
32323;SDS011;25666;44.350;9.222;2023-03-25T04:49:20;7.05;;;4.45;;
32323;SDS011;25666;44.350;9.222;2023-03-25T04:51:46;11.07;;;5.50;;
32323;SDS011;25666;44.350;9.222;2023-03-25T04:54:16;13.65;;;5.22;;
32323;SDS011;25666;44.350;9.222;2023-03-25T04:56:46;14.07;;;5.70;;
32323;SDS011;25666;44.350;9.222;2023-03-25T04:59:14;8.68;;;4.95;;
32323;SDS011;25666;44.350;9.222;2023-03-25T05:01:40;13.30;;;4.65;;
32323;SDS011;25666;44.350;9.222;2023-03-25T05:04:07;9.85;;;5.20;;
32323;SDS011;25666;44.350;9.222;2023-03-25T05:06:40;12.20;;;4.20;;
32323;SDS011;25666;44.350;9.222;2023-03-25T05:09:12;17.50;;;5.40;;
32323;SDS011;25666;44.350;9.222;2023-03-25T05:11:40;9.40;;;4.55;;
32323;SDS011;25666;44.350;9.222;2023-03-25T05:14:10;9.38;;;4.63;;
32323;SDS011;25666;44.350;9.222;2023-03-25T05:16:37;13.38;;;5.22;;
32323;SDS011;25666;44.350;9.222;2023-03-25T05:19:03;12.25;;;5.43;;
32323;SDS011;25666;44.350;9.222;2023-03-25T05:21:31;13.40;;;5.30;;
32323;SDS011;25666;44.350;9.222;2023-03-25T05:24:00;14.82;;;5.75;;
32323;SDS011;25666;44.350;9.222;2023-03-25T05:26:26;9.82;;;5.22;;
32323;SDS011;25666;44.350;9.222;2023-03-25T05:28:59;15.02;;;5.70;;
32323;SDS011;25666;44.350;9.222;2023-03-25T05:31:26;13.77;;;5.25;;
32323;SDS011;25666;44.350;9.222;2023-03-25T05:33:51;14.10;;;6.72;;
32323;SDS011;25666;44.350;9.222;2023-03-25T05:36:19;20.80;;;6.35;;
32323;SDS011;25666;44.350;9.222;2023-03-25T05:38:45;14.48;;;5.75;;
32323;SDS011;25666;44.350;9.222;2023-03-25T05:41:14;14.98;;;6.43;;
32323;SDS011;25666;44.350;9.222;2023-03-25T05:43:44;10.57;;;5.38;;
32323;SDS011;25666;44.350;9.222;2023-03-25T05:46:11;7.90;;;4.80;;
32323;SDS011;25666;44.350;9.222;2023-03-25T05:48:36;12.02;;;4.78;;
32323;SDS011;25666;44.350;9.222;2023-03-25T05:51:05;11.38;;;5.47;;
32323;SDS011;25666;44.350;9.222;2023-03-25T05:53:42;19.17;;;5.60;;
32323;SDS011;25666;44.350;9.222;2023-03-25T05:56:09;15.05;;;4.90;;
32323;SDS011;25666;44.350;9.222;2023-03-25T05:58:36;19.17;;;7.07;;
32323;SDS011;25666;44.350;9.222;2023-03-25T06:01:01;8.43;;;5.35;;
32323;SDS011;25666;44.350;9.222;2023-03-25T06:03:28;20.05;;;6.72;;
32323;SDS011;25666;44.350;9.222;2023-03-25T06:05:54;20.88;;;9.35;;
32323;SDS011;25666;44.350;9.222;2023-03-25T06:08:19;19.45;;;6.97;;
32323;SDS011;25666;44.350;9.222;2023-03-25T06:10:59;12.30;;;5.45;;
32323;SDS011;25666;44.350;9.222;2023-03-25T06:13:25;17.10;;;6.43;;
32323;SDS011;25666;44.350;9.222;2023-03-25T06:15:51;19.48;;;8.32;;
32323;SDS011;25666;44.350;9.222;2023-03-25T06:18:23;20.27;;;7.28;;
32323;SDS011;25666;44.350;9.222;2023-03-25T06:20:49;20.08;;;8.80;;
32323;SDS011;25666;44.350;9.222;2023-03-25T06:23:18;21.73;;;7.35;;
32323;SDS011;25666;44.350;9.222;2023-03-25T06:25:48;23.38;;;11.50;;
32323;SDS011;25666;44.350;9.222;2023-03-25T06:28:14;32.25;;;13.60;;
32323;SDS011;25666;44.350;9.222;2023-03-25T06:30:43;30.60;;;14.77;;
32323;SDS011;25666;44.350;9.222;2023-03-25T06:33:09;36.58;;;15.93;;
32323;SDS011;25666;44.350;9.222;2023-03-25T06:35:35;52.05;;;22.27;;
32323;SDS011;25666;44.350;9.222;2023-03-25T06:38:03;45.85;;;24.15;;
32323;SDS011;25666;44.350;9.222;2023-03-25T06:40:40;37.95;;;20.85;;
32323;SDS011;25666;44.350;9.222;2023-03-25T06:43:06;44.20;;;23.65;;
32323;SDS011;25666;44.350;9.222;2023-03-25T06:45:32;44.72;;;19.98;;
32323;SDS011;25666;44.350;9.222;2023-03-25T06:48:06;44.88;;;22.48;;
32323;SDS011;25666;44.350;9.222;2023-03-25T06:50:33;40.05;;;21.52;;
32323;SDS011;25666;44.350;9.222;2023-03-25T06:52:58;36.58;;;17.35;;
32323;SDS011;25666;44.350;9.222;2023-03-25T06:55:24;28.35;;;14.85;;
32323;SDS011;25666;44.350;9.222;2023-03-25T06:57:53;28.98;;;17.20;;
32323;SDS011;25666;44.350;9.222;2023-03-25T07:00:20;28.23;;;14.95;;
32323;SDS011;25666;44.350;9.222;2023-03-25T07:02:48;21.63;;;10.93;;
32323;SDS011;25666;44.350;9.222;2023-03-25T07:05:14;16.88;;;8.38;;
32323;SDS011;25666;44.350;9.222;2023-03-25T07:07:40;19.73;;;9.52;;
32323;SDS011;25666;44.350;9.222;2023-03-25T07:10:06;14.80;;;7.25;;
32323;SDS011;25666;44.350;9.222;2023-03-25T07:12:32;13.93;;;6.70;;
32323;SDS011;25666;44.350;9.222;2023-03-25T07:14:58;12.65;;;6.15;;
32323;SDS011;25666;44.350;9.222;2023-03-25T07:17:24;12.32;;;5.38;;
32323;SDS011;25666;44.350;9.222;2023-03-25T07:19:50;17.40;;;6.10;;
32323;SDS011;25666;44.350;9.222;2023-03-25T07:22:16;25.67;;;6.38;;
32323;SDS011;25666;44.350;9.222;2023-03-25T07:24:42;15.02;;;5.35;;
32323;SDS011;25666;44.350;9.222;2023-03-25T07:27:09;15.05;;;4.85;;
32323;SDS011;25666;44.350;9.222;2023-03-25T07:29:35;10.25;;;3.80;;
32323;SDS011;25666;44.350;9.222;2023-03-25T07:32:01;9.77;;;3.60;;
32323;SDS011;25666;44.350;9.222;2023-03-25T07:34:26;9.30;;;4.40;;
32323;SDS011;25666;44.350;9.222;2023-03-25T07:36:51;20.02;;;4.72;;
32323;SDS011;25666;44.350;9.222;2023-03-25T07:39:17;15.98;;;5.03;;
32323;SDS011;25666;44.350;9.222;2023-03-25T07:41:43;16.05;;;5.25;;
32323;SDS011;25666;44.350;9.222;2023-03-25T07:44:19;11.88;;;4.10;;
32323;SDS011;25666;44.350;9.222;2023-03-25T07:46:47;24.10;;;5.93;;
32323;SDS011;25666;44.350;9.222;2023-03-25T07:49:13;16.02;;;5.70;;
32323;SDS011;25666;44.350;9.222;2023-03-25T07:51:39;7.20;;;4.15;;
32323;SDS011;25666;44.350;9.222;2023-03-25T07:54:05;18.55;;;4.75;;
32323;SDS011;25666;44.350;9.222;2023-03-25T07:56:30;12.05;;;4.68;;
32323;SDS011;25666;44.350;9.222;2023-03-25T07:58:56;20.63;;;4.90;;
32323;SDS011;25666;44.350;9.222;2023-03-25T08:01:22;27.27;;;6.72;;
32323;SDS011;25666;44.350;9.222;2023-03-25T08:03:47;18.30;;;5.13;;
32323;SDS011;25666;44.350;9.222;2023-03-25T08:06:13;12.98;;;4.28;;
32323;SDS011;25666;44.350;9.222;2023-03-25T08:08:38;15.73;;;3.58;;
32323;SDS011;25666;44.350;9.222;2023-03-25T08:11:04;13.98;;;4.32;;
32323;SDS011;25666;44.350;9.222;2023-03-25T08:13:30;12.77;;;4.03;;
32323;SDS011;25666;44.350;9.222;2023-03-25T08:15:55;16.45;;;3.28;;
32323;SDS011;25666;44.350;9.222;2023-03-25T08:18:22;20.35;;;4.00;;
32323;SDS011;25666;44.350;9.222;2023-03-25T08:20:48;16.58;;;4.03;;
32323;SDS011;25666;44.350;9.222;2023-03-25T08:23:15;8.93;;;3.38;;
32323;SDS011;25666;44.350;9.222;2023-03-25T08:25:42;12.25;;;3.90;;
32323;SDS011;25666;44.350;9.222;2023-03-25T08:28:08;9.23;;;2.97;;
32323;SDS011;25666;44.350;9.222;2023-03-25T08:30:34;11.35;;;4.00;;
32323;SDS011;25666;44.350;9.222;2023-03-25T08:33:07;17.02;;;4.88;;
32323;SDS011;25666;44.350;9.222;2023-03-25T08:35:34;17.42;;;4.20;;
32323;SDS011;25666;44.350;9.222;2023-03-25T08:38:01;11.98;;;3.55;;
32323;SDS011;25666;44.350;9.222;2023-03-25T08:40:30;11.13;;;3.70;;
32323;SDS011;25666;44.350;9.222;2023-03-25T08:42:56;9.75;;;4.30;;
32323;SDS011;25666;44.350;9.222;2023-03-25T08:45:22;20.23;;;4.10;;
32323;SDS011;25666;44.350;9.222;2023-03-25T08:47:47;14.98;;;4.18;;
32323;SDS011;25666;44.350;9.222;2023-03-25T08:50:13;20.92;;;3.83;;
32323;SDS011;25666;44.350;9.222;2023-03-25T08:52:38;13.07;;;3.67;;
32323;SDS011;25666;44.350;9.222;2023-03-25T08:55:05;15.57;;;5.65;;
32323;SDS011;25666;44.350;9.222;2023-03-25T08:57:33;13.77;;;3.58;;
32323;SDS011;25666;44.350;9.222;2023-03-25T08:59:59;14.55;;;4.85;;
32323;SDS011;25666;44.350;9.222;2023-03-25T09:02:24;11.80;;;4.10;;
32323;SDS011;25666;44.350;9.222;2023-03-25T09:04:50;11.70;;;4.35;;
32323;SDS011;25666;44.350;9.222;2023-03-25T09:07:15;20.48;;;4.80;;
32323;SDS011;25666;44.350;9.222;2023-03-25T09:09:43;34.17;;;7.10;;
32323;SDS011;25666;44.350;9.222;2023-03-25T09:12:09;17.70;;;4.53;;
32323;SDS011;25666;44.350;9.222;2023-03-25T09:14:35;16.92;;;5.63;;
32323;SDS011;25666;44.350;9.222;2023-03-25T09:17:01;23.05;;;4.55;;
32323;SDS011;25666;44.350;9.222;2023-03-25T09:19:27;13.40;;;4.20;;
32323;SDS011;25666;44.350;9.222;2023-03-25T09:21:52;17.70;;;4.38;;
32323;SDS011;25666;44.350;9.222;2023-03-25T09:24:18;24.13;;;5.47;;
32323;SDS011;25666;44.350;9.222;2023-03-25T09:26:45;16.63;;;4.65;;
32323;SDS011;25666;44.350;9.222;2023-03-25T09:29:11;17.40;;;5.00;;
32323;SDS011;25666;44.350;9.222;2023-03-25T09:31:36;14.80;;;5.10;;
32323;SDS011;25666;44.350;9.222;2023-03-25T09:34:02;19.83;;;6.40;;
32323;SDS011;25666;44.350;9.222;2023-03-25T09:36:27;21.02;;;5.65;;
32323;SDS011;25666;44.350;9.222;2023-03-25T09:38:53;23.98;;;5.30;;
32323;SDS011;25666;44.350;9.222;2023-03-25T09:41:24;19.35;;;5.78;;
32323;SDS011;25666;44.350;9.222;2023-03-25T09:44:04;25.40;;;4.05;;
32323;SDS011;25666;44.350;9.222;2023-03-25T09:46:40;14.85;;;5.55;;
32323;SDS011;25666;44.350;9.222;2023-03-25T09:49:10;20.58;;;5.13;;
32323;SDS011;25666;44.350;9.222;2023-03-25T09:51:46;11.15;;;4.75;;
32323;SDS011;25666;44.350;9.222;2023-03-25T09:56:53;19.00;;;5.30;;
32323;SDS011;25666;44.350;9.222;2023-03-25T09:59:24;12.95;;;5.00;;
32323;SDS011;25666;44.350;9.222;2023-03-25T10:04:50;17.10;;;5.32;;
32323;SDS011;25666;44.350;9.222;2023-03-25T10:12:41;18.02;;;5.20;;
32323;SDS011;25666;44.350;9.222;2023-03-25T10:15:11;22.73;;;5.60;;
32323;SDS011;25666;44.350;9.222;2023-03-25T10:17:49;22.42;;;6.75;;
32323;SDS011;25666;44.350;9.222;2023-03-25T10:23:17;25.55;;;5.75;;
32323;SDS011;25666;44.350;9.222;2023-03-25T10:25:51;21.35;;;5.75;;
32323;SDS011;25666;44.350;9.222;2023-03-25T10:28:26;28.63;;;6.47;;
32323;SDS011;25666;44.350;9.222;2023-03-25T10:30:57;20.60;;;4.78;;
32323;SDS011;25666;44.350;9.222;2023-03-25T10:33:34;23.95;;;5.60;;
32323;SDS011;25666;44.350;9.222;2023-03-25T10:36:02;20.17;;;5.65;;
32323;SDS011;25666;44.350;9.222;2023-03-25T10:38:32;24.40;;;6.18;;
32323;SDS011;25666;44.350;9.222;2023-03-25T10:44:06;21.27;;;5.70;;
32323;SDS011;25666;44.350;9.222;2023-03-25T10:46:34;27.95;;;5.32;;
32323;SDS011;25666;44.350;9.222;2023-03-25T10:49:14;24.95;;;6.53;;
32323;SDS011;25666;44.350;9.222;2023-03-25T10:51:43;34.35;;;6.68;;
32323;SDS011;25666;44.350;9.222;2023-03-25T10:54:11;25.38;;;5.47;;
32323;SDS011;25666;44.350;9.222;2023-03-25T10:56:41;19.67;;;4.78;;
32323;SDS011;25666;44.350;9.222;2023-03-25T10:59:20;28.25;;;5.57;;
32323;SDS011;25666;44.350;9.222;2023-03-25T11:01:51;29.48;;;5.18;;
32323;SDS011;25666;44.350;9.222;2023-03-25T11:04:19;21.05;;;5.10;;
32323;SDS011;25666;44.350;9.222;2023-03-25T11:06:50;29.52;;;8.70;;
32323;SDS011;25666;44.350;9.222;2023-03-25T11:09:24;32.42;;;6.32;;
32323;SDS011;25666;44.350;9.222;2023-03-25T11:12:00;15.98;;;4.63;;
32323;SDS011;25666;44.350;9.222;2023-03-25T11:14:30;28.92;;;6.32;;
32323;SDS011;25666;44.350;9.222;2023-03-25T11:17:03;24.60;;;5.47;;
32323;SDS011;25666;44.350;9.222;2023-03-25T11:19:36;26.60;;;5.45;;
32323;SDS011;25666;44.350;9.222;2023-03-25T11:22:10;18.50;;;5.07;;
32323;SDS011;25666;44.350;9.222;2023-03-25T11:24:46;21.77;;;4.90;;
32323;SDS011;25666;44.350;9.222;2023-03-25T11:27:17;17.90;;;4.68;;
32323;SDS011;25666;44.350;9.222;2023-03-25T11:29:49;19.48;;;5.43;;
32323;SDS011;25666;44.350;9.222;2023-03-25T11:32:33;24.33;;;5.13;;
32323;SDS011;25666;44.350;9.222;2023-03-25T11:35:07;20.55;;;5.07;;
32323;SDS011;25666;44.350;9.222;2023-03-25T11:37:43;28.40;;;5.90;;
32323;SDS011;25666;44.350;9.222;2023-03-25T11:40:15;14.40;;;4.38;;
32323;SDS011;25666;44.350;9.222;2023-03-25T11:42:43;29.38;;;5.15;;
32323;SDS011;25666;44.350;9.222;2023-03-25T11:47:47;27.40;;;5.25;;
32323;SDS011;25666;44.350;9.222;2023-03-25T11:50:23;27.42;;;4.97;;
32323;SDS011;25666;44.350;9.222;2023-03-25T11:52:58;25.20;;;4.95;;
32323;SDS011;25666;44.350;9.222;2023-03-25T11:55:40;32.63;;;5.88;;
32323;SDS011;25666;44.350;9.222;2023-03-25T11:58:13;24.73;;;5.70;;
32323;SDS011;25666;44.350;9.222;2023-03-25T12:00:45;25.75;;;5.07;;
32323;SDS011;25666;44.350;9.222;2023-03-25T12:03:19;19.30;;;5.05;;
32323;SDS011;25666;44.350;9.222;2023-03-25T12:06:06;26.35;;;4.65;;
32323;SDS011;25666;44.350;9.222;2023-03-25T12:08:42;29.83;;;5.32;;
32323;SDS011;25666;44.350;9.222;2023-03-25T12:19:58;20.25;;;6.45;;
32323;SDS011;25666;44.350;9.222;2023-03-25T12:27:41;16.08;;;4.43;;
32323;SDS011;25666;44.350;9.222;2023-03-25T12:30:33;20.83;;;5.95;;
32323;SDS011;25666;44.350;9.222;2023-03-25T12:36:35;27.15;;;5.30;;
32323;SDS011;25666;44.350;9.222;2023-03-25T12:45:02;19.02;;;5.35;;
32323;SDS011;25666;44.350;9.222;2023-03-25T12:47:54;13.63;;;3.90;;
32323;SDS011;25666;44.350;9.222;2023-03-25T12:55:48;32.00;;;5.85;;
32323;SDS011;25666;44.350;9.222;2023-03-25T13:00:59;26.48;;;4.93;;
32323;SDS011;25666;44.350;9.222;2023-03-25T13:04:14;16.55;;;4.97;;
32323;SDS011;25666;44.350;9.222;2023-03-25T13:09:52;24.88;;;4.85;;
32323;SDS011;25666;44.350;9.222;2023-03-25T13:12:31;39.30;;;5.38;;
32323;SDS011;25666;44.350;9.222;2023-03-25T13:23:24;21.02;;;4.45;;
32323;SDS011;25666;44.350;9.222;2023-03-25T13:25:58;23.85;;;5.40;;
32323;SDS011;25666;44.350;9.222;2023-03-25T13:28:31;22.65;;;5.65;;
32323;SDS011;25666;44.350;9.222;2023-03-25T13:31:06;17.90;;;3.83;;
32323;SDS011;25666;44.350;9.222;2023-03-25T13:33:39;23.63;;;3.50;;
32323;SDS011;25666;44.350;9.222;2023-03-25T13:38:52;17.13;;;4.50;;
32323;SDS011;25666;44.350;9.222;2023-03-25T13:41:51;18.90;;;5.00;;
32323;SDS011;25666;44.350;9.222;2023-03-25T13:44:35;18.38;;;4.28;;
32323;SDS011;25666;44.350;9.222;2023-03-25T13:47:07;16.70;;;4.43;;
32323;SDS011;25666;44.350;9.222;2023-03-25T13:52:14;14.10;;;4.43;;
32323;SDS011;25666;44.350;9.222;2023-03-25T13:54:45;21.98;;;4.60;;
32323;SDS011;25666;44.350;9.222;2023-03-25T13:57:24;21.67;;;4.03;;
32323;SDS011;25666;44.350;9.222;2023-03-25T14:13:52;19.23;;;5.50;;
32323;SDS011;25666;44.350;9.222;2023-03-25T14:16:24;18.52;;;4.47;;
32323;SDS011;25666;44.350;9.222;2023-03-25T14:19:01;14.02;;;3.83;;
32323;SDS011;25666;44.350;9.222;2023-03-25T14:26:40;19.30;;;4.72;;
32323;SDS011;25666;44.350;9.222;2023-03-25T14:29:20;17.10;;;4.20;;
32323;SDS011;25666;44.350;9.222;2023-03-25T14:32:00;15.25;;;4.32;;
32323;SDS011;25666;44.350;9.222;2023-03-25T14:34:30;27.83;;;5.32;;
32323;SDS011;25666;44.350;9.222;2023-03-25T14:44:36;21.27;;;4.60;;
32323;SDS011;25666;44.350;9.222;2023-03-25T14:52:36;16.80;;;4.50;;
32323;SDS011;25666;44.350;9.222;2023-03-25T14:55:45;23.35;;;6.13;;
32323;SDS011;25666;44.350;9.222;2023-03-25T14:57:59;23.60;;;5.25;;
32323;SDS011;25666;44.350;9.222;2023-03-25T15:00:41;21.45;;;5.97;;
32323;SDS011;25666;44.350;9.222;2023-03-25T15:03:14;21.30;;;5.00;;
32323;SDS011;25666;44.350;9.222;2023-03-25T15:05:42;20.38;;;5.50;;
32323;SDS011;25666;44.350;9.222;2023-03-25T15:08:12;19.33;;;5.88;;
32323;SDS011;25666;44.350;9.222;2023-03-25T15:10:48;24.70;;;6.13;;
32323;SDS011;25666;44.350;9.222;2023-03-25T15:13:35;24.77;;;5.35;;
32323;SDS011;25666;44.350;9.222;2023-03-25T15:21:09;21.70;;;5.57;;
32323;SDS011;25666;44.350;9.222;2023-03-25T15:29:00;28.02;;;5.47;;
32323;SDS011;25666;44.350;9.222;2023-03-25T15:31:59;17.42;;;4.85;;
32323;SDS011;25666;44.350;9.222;2023-03-25T15:43:28;12.88;;;5.00;;
32323;SDS011;25666;44.350;9.222;2023-03-25T15:48:56;18.08;;;6.03;;
32323;SDS011;25666;44.350;9.222;2023-03-25T15:51:55;29.63;;;7.53;;
32323;SDS011;25666;44.350;9.222;2023-03-25T15:59:46;17.75;;;5.68;;
32323;SDS011;25666;44.350;9.222;2023-03-25T16:03:03;36.05;;;6.20;;
32323;SDS011;25666;44.350;9.222;2023-03-25T16:05:23;21.50;;;5.40;;
32323;SDS011;25666;44.350;9.222;2023-03-25T16:07:49;19.52;;;7.00;;
32323;SDS011;25666;44.350;9.222;2023-03-25T16:12:48;31.67;;;6.78;;
32323;SDS011;25666;44.350;9.222;2023-03-25T16:15:18;41.63;;;9.18;;
32323;SDS011;25666;44.350;9.222;2023-03-25T16:17:49;21.00;;;5.70;;
32323;SDS011;25666;44.350;9.222;2023-03-25T16:20:16;22.42;;;6.13;;
32323;SDS011;25666;44.350;9.222;2023-03-25T16:22:49;26.65;;;6.40;;
32323;SDS011;25666;44.350;9.222;2023-03-25T16:27:51;35.47;;;7.88;;
32323;SDS011;25666;44.350;9.222;2023-03-25T16:30:24;31.80;;;7.38;;
32323;SDS011;25666;44.350;9.222;2023-03-25T16:33:23;32.85;;;9.30;;
32323;SDS011;25666;44.350;9.222;2023-03-25T16:36:00;35.80;;;7.78;;
32323;SDS011;25666;44.350;9.222;2023-03-25T16:38:29;28.35;;;6.68;;
32323;SDS011;25666;44.350;9.222;2023-03-25T16:41:02;22.45;;;5.82;;
32323;SDS011;25666;44.350;9.222;2023-03-25T16:43:34;26.25;;;7.13;;
32323;SDS011;25666;44.350;9.222;2023-03-25T16:46:02;34.58;;;7.22;;
32323;SDS011;25666;44.350;9.222;2023-03-25T16:48:36;25.40;;;6.20;;
32323;SDS011;25666;44.350;9.222;2023-03-25T16:51:21;27.42;;;7.15;;
32323;SDS011;25666;44.350;9.222;2023-03-25T16:53:53;35.28;;;7.30;;
32323;SDS011;25666;44.350;9.222;2023-03-25T16:56:26;29.20;;;6.43;;
32323;SDS011;25666;44.350;9.222;2023-03-25T16:58:56;19.27;;;6.30;;
32323;SDS011;25666;44.350;9.222;2023-03-25T17:01:34;36.20;;;7.65;;
32323;SDS011;25666;44.350;9.222;2023-03-25T17:06:34;26.63;;;6.32;;
32323;SDS011;25666;44.350;9.222;2023-03-25T17:09:06;24.63;;;8.57;;
32323;SDS011;25666;44.350;9.222;2023-03-25T17:11:39;25.77;;;6.18;;
32323;SDS011;25666;44.350;9.222;2023-03-25T17:14:06;19.95;;;6.03;;
32323;SDS011;25666;44.350;9.222;2023-03-25T17:16:39;19.60;;;6.60;;
32323;SDS011;25666;44.350;9.222;2023-03-25T17:19:05;23.42;;;6.40;;
32323;SDS011;25666;44.350;9.222;2023-03-25T17:21:32;19.13;;;5.38;;
32323;SDS011;25666;44.350;9.222;2023-03-25T17:23:59;45.42;;;8.63;;
32323;SDS011;25666;44.350;9.222;2023-03-25T17:26:33;24.25;;;7.10;;
32323;SDS011;25666;44.350;9.222;2023-03-25T17:29:18;24.63;;;6.10;;
32323;SDS011;25666;44.350;9.222;2023-03-25T17:31:44;31.55;;;6.47;;
32323;SDS011;25666;44.350;9.222;2023-03-25T17:34:21;29.77;;;6.10;;
32323;SDS011;25666;44.350;9.222;2023-03-25T17:36:48;19.33;;;7.18;;
32323;SDS011;25666;44.350;9.222;2023-03-25T17:39:30;25.77;;;6.05;;
32323;SDS011;25666;44.350;9.222;2023-03-25T17:42:00;28.08;;;7.18;;
32323;SDS011;25666;44.350;9.222;2023-03-25T17:44:30;31.20;;;6.60;;
32323;SDS011;25666;44.350;9.222;2023-03-25T17:47:11;25.73;;;7.18;;
32323;SDS011;25666;44.350;9.222;2023-03-25T17:49:39;23.70;;;7.03;;
32323;SDS011;25666;44.350;9.222;2023-03-25T17:52:05;22.48;;;6.85;;